createdAt,value
2022-10-09T00:00:24.787Z,3.50
2022-10-09T00:02:53.144Z,6.47
2022-10-09T00:05:23.676Z,2.60
2022-10-09T00:07:53.475Z,4.50
2022-10-09T00:10:21.899Z,5.70
2022-10-09T00:12:50.703Z,0.70
2022-10-09T00:15:19.185Z,0.70
2022-10-09T00:17:47.457Z,11.70
2022-10-09T00:20:16.049Z,1.07
2022-10-09T00:22:44.584Z,5.43
2022-10-09T00:25:14.324Z,8.27
2022-10-09T00:27:42.644Z,7.63
2022-10-09T00:30:11.333Z,7.30
2022-10-09T00:32:39.664Z,9.03
2022-10-09T00:35:08.489Z,3.13
2022-10-09T00:37:36.852Z,1.53
2022-10-09T00:40:05.545Z,0.83
2022-10-09T00:42:35.306Z,2.03
2022-10-09T00:45:04.589Z,1.00
2022-10-09T00:47:36.136Z,1.07
2022-10-09T00:50:06.863Z,1.77
2022-10-09T00:52:35.325Z,20.83
2022-10-09T00:55:04.435Z,0.97
2022-10-09T00:57:33.180Z,0.70
2022-10-09T01:00:03.962Z,0.60
2022-10-09T01:02:32.352Z,0.80
2022-10-09T01:05:01.207Z,1.43
2022-10-09T01:07:36.021Z,1.63
2022-10-09T01:10:09.909Z,0.70
2022-10-09T01:12:41.591Z,1.40
2022-10-09T01:15:16.020Z,0.80
2022-10-09T01:17:45.941Z,1.10
2022-10-09T01:20:26.379Z,0.63
2022-10-09T01:23:03.662Z,2.23
2022-10-09T01:25:35.523Z,1.30
2022-10-09T01:28:07.100Z,0.70
2022-10-09T01:30:37.098Z,0.90
2022-10-09T01:33:06.527Z,0.67
2022-10-09T01:35:34.926Z,0.67
2022-10-09T01:38:04.147Z,0.60
2022-10-09T01:40:32.918Z,1.90
2022-10-09T01:43:01.357Z,2.57
2022-10-09T01:45:38.903Z,1.20
2022-10-09T01:48:07.799Z,0.87
2022-10-09T01:50:36.872Z,1.30
2022-10-09T01:53:08.096Z,0.77
2022-10-09T01:55:40.433Z,2.13
2022-10-09T01:58:11.837Z,0.60
2022-10-09T02:00:43.387Z,0.60
2022-10-09T02:03:13.269Z,1.47
2022-10-09T02:05:42.506Z,1.23
2022-10-09T02:08:11.359Z,2.37
2022-10-09T02:10:40.051Z,2.00
2022-10-09T02:13:08.706Z,1.33
2022-10-09T02:15:41.308Z,1.13
2022-10-09T02:18:13.981Z,0.80
2022-10-09T02:20:46.395Z,0.60
2022-10-09T02:23:15.370Z,0.70
2022-10-09T02:25:43.779Z,1.00
2022-10-09T02:28:12.656Z,5.23
2022-10-09T02:30:45.942Z,0.90
2022-10-09T02:33:15.767Z,0.70
2022-10-09T02:35:44.728Z,0.70
2022-10-09T02:38:13.054Z,3.57
2022-10-09T02:40:41.388Z,0.80
2022-10-09T02:43:09.653Z,0.70
2022-10-09T02:45:38.014Z,1.47
2022-10-09T02:48:06.312Z,5.17
2022-10-09T02:50:36.758Z,4.47
2022-10-09T02:53:05.083Z,3.80
2022-10-09T02:55:33.392Z,9.63
2022-10-09T02:58:01.749Z,3.27
2022-10-09T03:00:30.052Z,3.23
2022-10-09T03:03:01.163Z,8.10
2022-10-09T03:05:32.700Z,5.13
2022-10-09T03:08:02.399Z,3.50
2022-10-09T03:10:30.775Z,0.70
2022-10-09T03:12:59.095Z,1.03
2022-10-09T03:15:29.851Z,1.10
2022-10-09T03:17:58.180Z,0.60
2022-10-09T03:20:26.601Z,0.70
2022-10-09T03:22:55.561Z,1.10
2022-10-09T03:25:26.170Z,0.60
2022-10-09T03:27:54.519Z,5.13
2022-10-09T03:30:22.984Z,3.43
2022-10-09T03:32:51.551Z,14.53
2022-10-09T03:35:19.938Z,9.53
2022-10-09T03:37:48.330Z,1.33
2022-10-09T03:40:16.692Z,9.67
2022-10-09T03:42:47.186Z,7.23
2022-10-09T03:45:15.926Z,3.97
2022-10-09T03:47:44.302Z,9.33
2022-10-09T03:50:12.640Z,15.13
2022-10-09T03:52:41.190Z,9.23
2022-10-09T03:55:10.079Z,8.37
2022-10-09T03:57:38.652Z,8.97
2022-10-09T04:00:09.191Z,11.63
2022-10-09T04:02:37.623Z,13.90
2022-10-09T04:05:06.496Z,3.60
2022-10-09T04:07:35.310Z,14.53
2022-10-09T04:10:03.683Z,10.30
2022-10-09T04:12:32.113Z,11.53
2022-10-09T04:15:00.428Z,9.17
2022-10-09T04:17:30.123Z,12.70
2022-10-09T04:19:58.775Z,8.83
2022-10-09T04:22:27.485Z,18.00
2022-10-09T04:24:55.844Z,14.43
2022-10-09T04:27:24.210Z,15.23
2022-10-09T04:29:52.546Z,14.47
2022-10-09T04:32:20.856Z,14.43
2022-10-09T04:34:50.544Z,12.00
2022-10-09T04:37:19.030Z,19.67
2022-10-09T04:39:47.332Z,17.23
2022-10-09T04:42:15.656Z,15.00
2022-10-09T04:44:43.966Z,18.37
2022-10-09T04:47:12.303Z,15.50
2022-10-09T04:49:40.846Z,20.60
2022-10-09T04:52:10.565Z,9.83
2022-10-09T04:54:38.917Z,14.47
2022-10-09T04:57:07.247Z,24.50
2022-10-09T04:59:35.676Z,13.03
2022-10-09T05:02:04.150Z,9.93
2022-10-09T05:04:32.479Z,12.77
2022-10-09T05:07:00.910Z,16.93
2022-10-09T05:09:30.649Z,7.70
2022-10-09T05:11:59.031Z,22.27
2022-10-09T05:14:27.386Z,7.03
2022-10-09T05:17:13.212Z,15.20
2022-10-09T05:19:42.332Z,16.20
2022-10-09T05:22:10.767Z,12.67
2022-10-09T05:24:40.428Z,14.47
2022-10-09T05:27:08.764Z,12.00
2022-10-09T05:29:37.080Z,17.00
2022-10-09T05:32:05.524Z,18.83
2022-10-09T05:34:35.323Z,15.23
2022-10-09T05:37:03.678Z,20.93
2022-10-09T05:39:32.465Z,13.80
2022-10-09T05:42:02.207Z,16.07
2022-10-09T05:44:30.480Z,18.07
2022-10-09T05:46:58.873Z,14.33
2022-10-09T05:49:27.304Z,16.20
2022-10-09T05:51:55.983Z,15.63
2022-10-09T05:54:24.406Z,14.70
2022-10-09T05:56:52.717Z,5.80
2022-10-09T05:59:22.387Z,17.20
2022-10-09T06:01:51.933Z,15.23
2022-10-09T06:04:21.325Z,13.57
2022-10-09T06:06:49.725Z,14.63
2022-10-09T06:09:18.672Z,15.00
2022-10-09T06:11:47.490Z,17.07
2022-10-09T06:14:15.981Z,14.23
2022-10-09T06:16:46.813Z,16.13
2022-10-09T06:19:16.033Z,16.30
2022-10-09T06:21:44.705Z,18.23
2022-10-09T06:24:18.187Z,14.47
2022-10-09T06:26:46.527Z,10.80
2022-10-09T06:29:14.913Z,13.07
2022-10-09T06:31:43.252Z,15.43
2022-10-09T06:34:12.951Z,9.77
2022-10-09T06:36:41.254Z,15.57
2022-10-09T06:39:09.727Z,17.70
2022-10-09T06:41:38.277Z,8.77
2022-10-09T06:44:10.800Z,13.20
2022-10-09T06:46:43.125Z,11.43
2022-10-09T06:49:13.253Z,13.73
2022-10-09T06:51:41.773Z,11.57
2022-10-09T06:54:12.825Z,3.97
2022-10-09T06:56:41.164Z,13.43
2022-10-09T06:59:11.973Z,15.10
2022-10-09T07:01:40.471Z,12.47
2022-10-09T07:04:10.934Z,15.13
2022-10-09T07:06:41.955Z,12.23
2022-10-09T07:09:11.351Z,11.37
2022-10-09T07:11:40.574Z,16.60
2022-10-09T07:14:09.908Z,16.87
2022-10-09T07:16:39.306Z,12.03
2022-10-09T07:19:10.969Z,12.37
2022-10-09T07:21:41.422Z,10.83
2022-10-09T07:24:10.635Z,11.07
2022-10-09T07:26:40.513Z,14.57
2022-10-09T07:29:12.802Z,11.83
2022-10-09T07:31:41.187Z,10.60
2022-10-09T07:34:09.545Z,10.53
2022-10-09T07:36:38.004Z,11.33
2022-10-09T07:39:07.732Z,13.83
2022-10-09T07:41:37.938Z,13.33
2022-10-09T07:44:06.371Z,11.63
2022-10-09T07:46:34.772Z,9.23
2022-10-09T07:49:03.246Z,10.77
2022-10-09T07:51:32.022Z,7.37
2022-10-09T07:54:02.026Z,10.80
2022-10-09T07:56:32.741Z,11.07
2022-10-09T07:59:02.137Z,8.67
2022-10-09T08:01:31.650Z,11.70
2022-10-09T08:04:00.647Z,10.63
2022-10-09T08:06:29.323Z,10.10
2022-10-09T08:08:59.003Z,9.33
2022-10-09T08:11:28.117Z,8.47
2022-10-09T08:13:58.229Z,7.83
2022-10-09T08:16:27.744Z,9.90
2022-10-09T08:18:56.930Z,6.07
2022-10-09T08:21:26.056Z,4.57
2022-10-09T08:23:55.232Z,7.73
2022-10-09T08:26:24.738Z,11.60
2022-10-09T08:28:53.792Z,9.27
2022-10-09T08:31:24.026Z,4.27
2022-10-09T08:33:53.894Z,13.10
2022-10-09T08:36:22.597Z,15.37
2022-10-09T08:38:50.935Z,8.57
2022-10-09T08:41:24.232Z,2.87
2022-10-09T08:43:54.308Z,7.30
2022-10-09T08:46:25.854Z,12.87
2022-10-09T08:48:55.642Z,11.37
2022-10-09T08:51:25.852Z,6.60
2022-10-09T08:53:57.337Z,10.93
2022-10-09T08:56:27.018Z,9.00
2022-10-09T08:58:55.438Z,10.13
2022-10-09T09:01:28.433Z,9.67
2022-10-09T09:04:02.177Z,6.13
2022-10-09T09:06:34.511Z,7.47
2022-10-09T09:09:07.239Z,10.03
2022-10-09T09:11:39.961Z,3.63
2022-10-09T09:14:19.807Z,7.70
2022-10-09T09:16:53.783Z,2.40
2022-10-09T09:19:33.887Z,10.17
2022-10-09T09:22:02.362Z,7.53
2022-10-09T09:24:35.578Z,8.33
2022-10-09T09:27:05.394Z,1.03
2022-10-09T09:29:40.303Z,6.83
2022-10-09T09:32:16.274Z,6.30
2022-10-09T09:34:44.850Z,7.03
2022-10-09T09:37:13.527Z,7.57
2022-10-09T09:40:31.215Z,6.63
2022-10-09T09:42:30.546Z,8.20
2022-10-09T09:45:00.470Z,7.10
2022-10-09T09:47:34.772Z,7.27
2022-10-09T09:50:04.139Z,4.93
2022-10-09T09:52:36.319Z,7.70
2022-10-09T09:55:05.764Z,9.93
2022-10-09T09:57:36.145Z,8.93
2022-10-09T10:00:22.454Z,7.87
2022-10-09T10:02:52.662Z,4.70
2022-10-09T10:05:26.156Z,6.53
2022-10-09T10:07:59.428Z,7.63
2022-10-09T10:10:29.054Z,6.67
2022-10-09T10:12:58.837Z,5.50
2022-10-09T10:15:28.170Z,5.43
2022-10-09T10:18:02.496Z,6.60
2022-10-09T10:20:32.081Z,6.53
2022-10-09T10:23:01.279Z,5.93
2022-10-09T10:25:32.901Z,5.17
2022-10-09T10:28:03.929Z,5.57
2022-10-09T10:30:33.091Z,10.17
2022-10-09T10:33:04.678Z,5.00
2022-10-09T10:35:35.813Z,6.13
2022-10-09T10:38:06.420Z,7.67
2022-10-09T10:40:37.638Z,7.57
2022-10-09T10:43:10.055Z,8.47
2022-10-09T10:45:43.094Z,10.77
2022-10-09T10:48:14.343Z,6.73
2022-10-09T10:50:44.541Z,6.80
2022-10-09T10:53:16.294Z,6.17
2022-10-09T10:55:50.095Z,5.87
2022-10-09T10:58:24.541Z,6.93
2022-10-09T11:00:56.049Z,9.90
2022-10-09T11:03:34.399Z,4.17
2022-10-09T11:06:05.216Z,7.50
2022-10-09T11:08:42.129Z,4.93
2022-10-09T11:11:13.956Z,8.37
2022-10-09T11:13:49.197Z,5.70
2022-10-09T11:16:26.593Z,9.17
2022-10-09T11:19:03.048Z,6.27
2022-10-09T11:21:39.104Z,3.43
2022-10-09T11:24:19.782Z,9.67
2022-10-09T11:26:51.177Z,7.30
2022-10-09T11:29:21.842Z,6.50
2022-10-09T11:31:53.024Z,3.40
2022-10-09T11:34:26.362Z,4.13
2022-10-09T11:36:55.084Z,8.23
2022-10-09T11:39:24.383Z,6.63
2022-10-09T11:41:53.704Z,6.43
2022-10-09T11:44:33.402Z,9.77
2022-10-09T11:47:09.532Z,3.97
2022-10-09T11:49:46.393Z,8.10
2022-10-09T11:52:19.898Z,4.60
2022-10-09T11:54:48.251Z,9.50
2022-10-09T11:57:16.724Z,7.53
2022-10-09T11:59:45.206Z,6.97
2022-10-09T12:02:25.834Z,2.90
2022-10-09T12:04:56.857Z,5.23
2022-10-09T12:07:29.575Z,5.63
2022-10-09T12:10:03.190Z,4.40
2022-10-09T12:12:31.700Z,7.60
2022-10-09T12:15:01.151Z,6.47
2022-10-09T12:17:38.415Z,4.87
2022-10-09T12:20:10.473Z,4.37
2022-10-09T12:22:42.465Z,1.93
2022-10-09T12:25:17.035Z,5.67
2022-10-09T12:27:46.091Z,3.23
2022-10-09T12:30:20.813Z,6.00
2022-10-09T12:32:52.167Z,5.87
2022-10-09T12:35:24.127Z,4.77
2022-10-09T12:37:52.439Z,3.33
2022-10-09T12:40:23.547Z,4.20
2022-10-09T12:42:53.944Z,0.87
2022-10-09T12:45:23.499Z,2.93
2022-10-09T12:47:52.187Z,5.73
2022-10-09T12:50:24.202Z,5.40
2022-10-09T12:52:55.023Z,9.43
2022-10-09T12:55:27.004Z,6.67
2022-10-09T12:57:59.566Z,4.27
2022-10-09T13:00:29.051Z,7.83
2022-10-09T13:02:57.496Z,6.20
2022-10-09T13:05:36.414Z,4.10
2022-10-09T13:08:06.574Z,4.57
2022-10-09T13:10:34.902Z,8.80
2022-10-09T13:13:03.386Z,5.53
2022-10-09T13:15:33.598Z,4.23
2022-10-09T13:18:02.149Z,2.23
2022-10-09T13:20:31.847Z,0.70
2022-10-09T13:23:01.179Z,3.67
2022-10-09T13:25:34.124Z,1.60
2022-10-09T13:28:03.700Z,3.43
2022-10-09T13:30:32.181Z,3.83
2022-10-09T13:33:00.941Z,6.13
2022-10-09T13:35:29.287Z,4.33
2022-10-09T13:37:57.715Z,5.43
2022-10-09T13:40:26.093Z,7.30
2022-10-09T13:42:56.515Z,2.20
2022-10-09T13:45:24.835Z,1.50
2022-10-09T13:47:53.337Z,2.27
2022-10-09T13:50:21.719Z,3.63
2022-10-09T13:52:50.172Z,2.63
2022-10-09T13:55:18.871Z,7.80
2022-10-09T13:57:48.345Z,6.03
2022-10-09T14:00:18.417Z,6.43
2022-10-09T14:02:48.666Z,4.43
2022-10-09T14:05:17.028Z,2.83
2022-10-09T14:07:45.304Z,1.90
2022-10-09T14:10:13.774Z,3.30
2022-10-09T14:12:42.193Z,5.03
2022-10-09T14:15:10.789Z,4.83
2022-10-09T14:17:40.714Z,4.30
2022-10-09T14:20:09.485Z,0.57
2022-10-09T14:22:38.112Z,1.97
2022-10-09T14:25:06.707Z,5.97
2022-10-09T14:30:09.000Z,5.90
2022-10-09T14:32:37.421Z,7.87
2022-10-09T14:35:07.702Z,4.53
2022-10-09T14:37:41.735Z,5.50
2022-10-09T14:40:11.028Z,5.47
2022-10-09T14:42:39.948Z,7.17
2022-10-09T14:45:09.056Z,8.60
2022-10-09T14:47:37.385Z,2.53
2022-10-09T14:50:07.786Z,4.13
2022-10-09T14:52:36.183Z,3.23
2022-10-09T14:55:04.558Z,5.77
2022-10-09T14:57:35.424Z,5.97
2022-10-09T15:00:04.900Z,5.80
2022-10-09T15:02:33.352Z,4.17
2022-10-09T15:05:01.669Z,3.40
2022-10-09T15:07:31.989Z,6.60
2022-10-09T15:10:00.332Z,4.70
2022-10-09T15:12:28.759Z,3.07
2022-10-09T15:14:57.075Z,5.43
2022-10-09T15:17:25.421Z,4.17
2022-10-09T15:19:54.301Z,7.77
2022-10-09T15:22:22.637Z,3.73
2022-10-09T15:24:52.465Z,3.40
2022-10-09T15:27:20.809Z,4.67
2022-10-09T15:29:49.162Z,3.17
2022-10-09T15:32:17.503Z,3.07
2022-10-09T15:34:45.894Z,2.17
2022-10-09T15:37:14.362Z,3.87
2022-10-09T15:39:42.859Z,4.07
2022-10-09T15:42:12.589Z,4.53
2022-10-09T15:44:43.183Z,3.23
2022-10-09T15:47:16.425Z,4.77
2022-10-09T15:49:46.582Z,7.13
2022-10-09T15:52:16.541Z,3.47
2022-10-09T15:54:47.149Z,7.43
2022-10-09T15:57:16.972Z,5.40
2022-10-09T15:59:45.416Z,5.40
2022-10-09T16:02:14.093Z,3.27
2022-10-09T16:04:42.403Z,2.67
2022-10-09T16:07:10.816Z,4.03
2022-10-09T16:09:39.466Z,1.50
2022-10-09T16:12:07.886Z,2.33
2022-10-09T16:14:38.334Z,3.33
2022-10-09T16:17:11.097Z,4.10
2022-10-09T16:19:39.899Z,4.03
2022-10-09T16:22:08.257Z,3.17
2022-10-09T16:24:36.566Z,2.80
2022-10-09T16:27:05.320Z,0.43
2022-10-09T16:29:33.647Z,2.00
2022-10-09T16:32:03.436Z,0.60
2022-10-09T16:34:31.764Z,1.13
2022-10-09T16:37:02.286Z,1.70
2022-10-09T16:39:30.612Z,9.43
2022-10-09T16:42:03.653Z,1.47
2022-10-09T16:44:32.412Z,0.50
2022-10-09T16:47:00.756Z,4.23
2022-10-09T16:49:31.608Z,0.60
2022-10-09T16:52:00.423Z,0.40
2022-10-09T16:54:28.835Z,0.40
2022-10-09T16:56:57.215Z,0.60
2022-10-09T16:59:25.622Z,0.50
2022-10-09T17:01:55.149Z,0.50
2022-10-09T17:04:23.531Z,0.50
2022-10-09T17:06:53.647Z,1.00
2022-10-09T17:09:22.005Z,0.97
2022-10-09T17:11:50.579Z,1.93
2022-10-09T17:14:22.079Z,0.87
2022-10-09T17:16:51.343Z,0.40
2022-10-09T17:19:19.663Z,4.43
2022-10-09T17:21:48.033Z,0.60
2022-10-09T17:24:17.756Z,0.60
2022-10-09T17:26:46.104Z,0.63
2022-10-09T17:29:15.169Z,0.60
2022-10-09T17:31:43.683Z,0.50
2022-10-09T17:34:13.303Z,0.57
2022-10-09T17:36:45.666Z,0.90
2022-10-09T17:39:18.281Z,0.50
2022-10-09T17:41:48.754Z,0.87
2022-10-09T17:44:17.224Z,1.90
2022-10-09T17:46:45.569Z,1.23
2022-10-09T17:49:14.076Z,0.50
2022-10-09T17:51:42.428Z,0.50
2022-10-09T17:54:12.521Z,1.47
2022-10-09T17:56:41.191Z,0.50
2022-10-09T17:59:11.019Z,1.07
2022-10-09T18:01:39.859Z,0.70
2022-10-09T18:04:08.198Z,1.60
2022-10-09T18:06:36.671Z,0.50
2022-10-09T18:09:05.890Z,0.93
2022-10-09T18:11:34.268Z,2.37
2022-10-09T18:14:03.755Z,0.70
2022-10-09T18:16:37.809Z,1.57
2022-10-09T18:19:07.834Z,1.13
2022-10-09T18:21:36.322Z,0.50
2022-10-09T18:24:04.711Z,1.10
2022-10-09T18:26:33.026Z,0.50
2022-10-09T18:29:01.867Z,0.50
2022-10-09T18:31:31.147Z,0.50
2022-10-09T18:34:01.060Z,0.50
2022-10-09T18:36:33.595Z,0.50
2022-10-09T18:39:03.989Z,0.60
2022-10-09T18:41:32.309Z,0.50
2022-10-09T18:44:01.506Z,1.03
2022-10-09T18:46:32.079Z,1.20
2022-10-09T18:49:02.115Z,0.80
2022-10-09T18:51:30.648Z,0.93
2022-10-09T18:54:01.776Z,0.60
2022-10-09T18:56:31.390Z,0.87
2022-10-09T18:59:00.615Z,0.93
2022-10-09T19:01:29.004Z,0.50
2022-10-09T19:03:57.344Z,1.10
2022-10-09T19:06:27.060Z,1.53
2022-10-09T19:08:57.856Z,1.70
2022-10-09T19:11:26.218Z,1.10
2022-10-09T19:13:55.287Z,1.80
2022-10-09T19:16:24.337Z,1.40
2022-10-09T19:18:53.775Z,0.57
2022-10-09T19:21:22.154Z,0.50
2022-10-09T19:23:52.963Z,0.60
2022-10-09T19:26:22.059Z,0.83
2022-10-09T19:28:50.428Z,1.00
2022-10-09T19:31:19.053Z,0.57
2022-10-09T19:33:48.097Z,0.60
2022-10-09T19:36:19.529Z,0.97
2022-10-09T19:38:48.866Z,0.60
2022-10-09T19:41:18.584Z,0.60
2022-10-09T19:43:46.946Z,2.43
2022-10-09T19:46:17.272Z,0.60
2022-10-09T19:48:46.158Z,1.13
2022-10-09T19:51:18.455Z,1.03
2022-10-09T19:53:46.832Z,0.80
2022-10-09T19:56:16.626Z,0.50
2022-10-09T19:58:47.289Z,1.57
2022-10-09T20:01:16.415Z,4.17
2022-10-09T20:03:44.814Z,7.90
2022-10-09T20:06:13.448Z,0.50
2022-10-09T20:08:42.569Z,0.60
2022-10-09T20:11:11.892Z,0.60
2022-10-09T20:13:40.720Z,0.60
2022-10-09T20:16:11.126Z,1.27
2022-10-09T20:18:42.033Z,0.83
2022-10-09T20:21:10.423Z,0.90
2022-10-09T20:23:38.759Z,8.90
2022-10-09T20:26:08.397Z,1.70
2022-10-09T20:28:37.952Z,1.70
2022-10-09T20:31:08.160Z,0.80
2022-10-09T20:33:38.661Z,1.10
2022-10-09T20:36:07.559Z,0.80
2022-10-09T20:38:35.943Z,0.90
2022-10-09T20:41:06.670Z,1.80
2022-10-09T20:43:35.058Z,0.80
2022-10-09T20:46:07.091Z,1.20
2022-10-09T20:48:35.445Z,1.73
2022-10-09T20:51:05.596Z,1.03
2022-10-09T20:53:34.216Z,0.77
2022-10-09T20:56:02.920Z,0.60
2022-10-09T20:58:31.262Z,0.53
2022-10-09T21:00:59.705Z,5.70
2022-10-09T21:03:28.371Z,0.60
2022-10-09T21:05:56.700Z,0.50
2022-10-09T21:08:26.382Z,1.00
2022-10-09T21:10:54.763Z,1.97
2022-10-09T21:13:23.123Z,0.77
2022-10-09T21:15:52.244Z,1.17
2022-10-09T21:18:21.116Z,1.63
2022-10-09T21:20:49.968Z,1.13
2022-10-09T21:23:19.507Z,0.77
2022-10-09T21:25:50.261Z,1.00
2022-10-09T21:28:19.133Z,0.70
2022-10-09T21:30:47.570Z,0.60
2022-10-09T21:33:16.230Z,4.47
2022-10-09T21:35:45.815Z,1.40
2022-10-09T21:38:15.157Z,3.87
2022-10-09T21:40:43.983Z,5.40
2022-10-09T21:43:14.104Z,5.93
2022-10-09T21:45:42.763Z,7.60
2022-10-09T21:48:16.212Z,7.17
2022-10-09T21:50:44.716Z,4.23
2022-10-09T21:53:13.318Z,6.90
2022-10-09T21:55:41.913Z,6.27
2022-10-09T21:58:10.318Z,10.37
2022-10-09T22:00:40.067Z,5.40
2022-10-09T22:03:08.639Z,4.90
2022-10-09T22:05:37.013Z,5.50
2022-10-09T22:08:05.339Z,5.70
2022-10-09T22:10:33.700Z,5.60
2022-10-09T22:13:02.067Z,7.53
2022-10-09T22:15:30.352Z,4.33
2022-10-09T22:18:00.091Z,5.30
2022-10-09T22:20:28.795Z,5.33
2022-10-09T22:22:57.117Z,4.77
2022-10-09T22:25:25.390Z,6.80
2022-10-09T22:27:53.729Z,10.10
2022-10-09T22:30:22.067Z,5.70
2022-10-09T22:32:50.673Z,6.07
2022-10-09T22:35:20.596Z,8.63
2022-10-09T22:37:48.981Z,5.93
2022-10-09T22:40:17.433Z,6.53
2022-10-09T22:42:45.823Z,4.73
2022-10-09T22:45:14.159Z,6.67
2022-10-09T22:47:42.474Z,2.97
2022-10-09T22:50:11.295Z,7.10
2022-10-09T22:52:40.987Z,6.40
2022-10-09T22:55:09.806Z,7.57
2022-10-09T22:57:38.127Z,5.43
2022-10-09T23:00:07.227Z,5.00
2022-10-09T23:02:35.568Z,7.00
2022-10-09T23:05:04.047Z,6.70
2022-10-09T23:07:32.394Z,8.03
2022-10-09T23:10:02.100Z,9.13
2022-10-09T23:12:30.428Z,8.53
2022-10-09T23:14:58.735Z,7.73
2022-10-09T23:17:27.096Z,6.90
2022-10-09T23:19:55.511Z,12.90
2022-10-09T23:22:23.876Z,6.63
2022-10-09T23:24:52.210Z,4.57
2022-10-09T23:27:21.956Z,7.93
2022-10-09T23:29:50.467Z,7.13
2022-10-09T23:32:18.759Z,7.00
2022-10-09T23:34:47.086Z,6.23
2022-10-09T23:37:18.608Z,7.17
2022-10-09T23:39:46.961Z,6.53
2022-10-09T23:42:15.248Z,9.43
2022-10-09T23:44:44.987Z,8.07
2022-10-09T23:47:13.416Z,6.27
2022-10-09T23:49:41.791Z,9.17
2022-10-09T23:52:10.160Z,7.97
2022-10-09T23:54:38.563Z,9.37
2022-10-09T23:57:06.872Z,7.27
2022-10-09T23:59:35.201Z,6.93
